sensor_id;sensor_type;location;lat;lon;timestamp;temperature;humidity
7366;DHT22;3723;52.220;8.792;2022-07-30T00:00:07;15.70;99.90
7366;DHT22;3723;52.220;8.792;2022-07-30T00:02:34;15.70;99.90
7366;DHT22;3723;52.220;8.792;2022-07-30T00:05:01;15.60;99.90
7366;DHT22;3723;52.220;8.792;2022-07-30T00:07:28;15.60;99.90
7366;DHT22;3723;52.220;8.792;2022-07-30T00:09:55;15.60;99.90
7366;DHT22;3723;52.220;8.792;2022-07-30T00:12:22;15.60;99.90
7366;DHT22;3723;52.220;8.792;2022-07-30T00:14:49;15.60;99.90
7366;DHT22;3723;52.220;8.792;2022-07-30T00:17:17;15.60;99.90
7366;DHT22;3723;52.220;8.792;2022-07-30T00:19:44;15.70;99.90
7366;DHT22;3723;52.220;8.792;2022-07-30T00:22:11;15.70;99.90
7366;DHT22;3723;52.220;8.792;2022-07-30T00:24:38;15.70;99.90
7366;DHT22;3723;52.220;8.792;2022-07-30T00:27:05;15.70;99.90
7366;DHT22;3723;52.220;8.792;2022-07-30T00:29:32;15.70;99.90
7366;DHT22;3723;52.220;8.792;2022-07-30T00:31:58;15.70;99.90
7366;DHT22;3723;52.220;8.792;2022-07-30T00:34:27;15.70;99.90
7366;DHT22;3723;52.220;8.792;2022-07-30T00:36:54;15.60;99.90
7366;DHT22;3723;52.220;8.792;2022-07-30T00:39:20;15.60;99.90
7366;DHT22;3723;52.220;8.792;2022-07-30T00:41:58;15.50;99.90
7366;DHT22;3723;52.220;8.792;2022-07-30T00:44:25;15.50;99.90
7366;DHT22;3723;52.220;8.792;2022-07-30T00:46:52;15.50;99.90
7366;DHT22;3723;52.220;8.792;2022-07-30T00:49:19;15.50;99.90
7366;DHT22;3723;52.220;8.792;2022-07-30T00:51:48;15.40;99.90
7366;DHT22;3723;52.220;8.792;2022-07-30T00:54:15;15.40;99.90
7366;DHT22;3723;52.220;8.792;2022-07-30T00:56:42;15.40;99.90
7366;DHT22;3723;52.220;8.792;2022-07-30T00:59:09;15.40;99.90
7366;DHT22;3723;52.220;8.792;2022-07-30T01:01:36;15.50;99.90
7366;DHT22;3723;52.220;8.792;2022-07-30T01:04:03;15.50;99.90
7366;DHT22;3723;52.220;8.792;2022-07-30T01:06:32;15.50;99.90
7366;DHT22;3723;52.220;8.792;2022-07-30T01:09:00;15.50;99.90
7366;DHT22;3723;52.220;8.792;2022-07-30T01:11:30;15.50;99.90
7366;DHT22;3723;52.220;8.792;2022-07-30T01:13:59;15.50;99.90
7366;DHT22;3723;52.220;8.792;2022-07-30T01:16:26;15.50;99.90
7366;DHT22;3723;52.220;8.792;2022-07-30T01:18:55;15.50;99.90
7366;DHT22;3723;52.220;8.792;2022-07-30T01:21:44;15.50;99.90
7366;DHT22;3723;52.220;8.792;2022-07-30T01:24:21;15.50;99.90
7366;DHT22;3723;52.220;8.792;2022-07-30T01:26:53;15.60;99.90
7366;DHT22;3723;52.220;8.792;2022-07-30T01:29:22;15.60;99.90
7366;DHT22;3723;52.220;8.792;2022-07-30T01:31:51;15.60;99.90
7366;DHT22;3723;52.220;8.792;2022-07-30T01:34:21;15.50;99.90
7366;DHT22;3723;52.220;8.792;2022-07-30T01:36:49;15.50;99.90
7366;DHT22;3723;52.220;8.792;2022-07-30T01:39:16;15.50;99.90
7366;DHT22;3723;52.220;8.792;2022-07-30T01:41:46;15.40;99.90
7366;DHT22;3723;52.220;8.792;2022-07-30T01:44:16;15.50;99.90
7366;DHT22;3723;52.220;8.792;2022-07-30T01:46:45;15.50;99.90
7366;DHT22;3723;52.220;8.792;2022-07-30T01:49:14;15.50;99.90
7366;DHT22;3723;52.220;8.792;2022-07-30T01:51:43;15.50;99.90
7366;DHT22;3723;52.220;8.792;2022-07-30T01:54:13;15.40;99.90
7366;DHT22;3723;52.220;8.792;2022-07-30T01:56:43;15.50;99.90
7366;DHT22;3723;52.220;8.792;2022-07-30T01:59:11;15.50;99.90
7366;DHT22;3723;52.220;8.792;2022-07-30T02:01:41;15.50;99.90
7366;DHT22;3723;52.220;8.792;2022-07-30T02:04:08;15.40;99.90
7366;DHT22;3723;52.220;8.792;2022-07-30T02:06:39;15.40;99.90
7366;DHT22;3723;52.220;8.792;2022-07-30T02:09:08;15.40;99.90
7366;DHT22;3723;52.220;8.792;2022-07-30T02:11:40;15.40;99.90
7366;DHT22;3723;52.220;8.792;2022-07-30T02:14:28;15.40;99.90
7366;DHT22;3723;52.220;8.792;2022-07-30T02:16:57;15.40;99.90
7366;DHT22;3723;52.220;8.792;2022-07-30T02:19:32;15.40;99.90
7366;DHT22;3723;52.220;8.792;2022-07-30T02:22:03;15.50;99.90
7366;DHT22;3723;52.220;8.792;2022-07-30T02:24:31;15.50;99.90
7366;DHT22;3723;52.220;8.792;2022-07-30T02:27:02;15.50;99.90
7366;DHT22;3723;52.220;8.792;2022-07-30T02:29:31;15.50;99.90
7366;DHT22;3723;52.220;8.792;2022-07-30T02:32:01;15.50;99.90
7366;DHT22;3723;52.220;8.792;2022-07-30T02:34:32;15.50;99.90
7366;DHT22;3723;52.220;8.792;2022-07-30T02:37:01;15.50;99.90
7366;DHT22;3723;52.220;8.792;2022-07-30T02:39:30;15.50;99.90
7366;DHT22;3723;52.220;8.792;2022-07-30T02:41:59;15.40;99.90
7366;DHT22;3723;52.220;8.792;2022-07-30T02:44:29;15.50;99.90
7366;DHT22;3723;52.220;8.792;2022-07-30T02:46:57;15.40;99.90
7366;DHT22;3723;52.220;8.792;2022-07-30T02:49:27;15.40;99.90
7366;DHT22;3723;52.220;8.792;2022-07-30T02:51:55;15.40;99.90
7366;DHT22;3723;52.220;8.792;2022-07-30T02:54:22;15.40;99.90
7366;DHT22;3723;52.220;8.792;2022-07-30T02:56:50;15.30;99.90
7366;DHT22;3723;52.220;8.792;2022-07-30T02:59:19;15.30;99.90
7366;DHT22;3723;52.220;8.792;2022-07-30T03:01:47;15.30;99.90
7366;DHT22;3723;52.220;8.792;2022-07-30T03:04:16;15.20;99.90
7366;DHT22;3723;52.220;8.792;2022-07-30T03:06:46;15.20;99.90
7366;DHT22;3723;52.220;8.792;2022-07-30T03:09:14;15.20;99.90
7366;DHT22;3723;52.220;8.792;2022-07-30T03:11:42;15.10;99.90
7366;DHT22;3723;52.220;8.792;2022-07-30T03:14:09;15.00;99.90
7366;DHT22;3723;52.220;8.792;2022-07-30T03:16:36;15.00;99.90
7366;DHT22;3723;52.220;8.792;2022-07-30T03:19:07;15.00;99.90
7366;DHT22;3723;52.220;8.792;2022-07-30T03:21:38;15.00;99.90
7366;DHT22;3723;52.220;8.792;2022-07-30T03:24:08;15.00;99.90
7366;DHT22;3723;52.220;8.792;2022-07-30T03:26:35;15.00;99.90
7366;DHT22;3723;52.220;8.792;2022-07-30T03:29:03;15.00;99.90
7366;DHT22;3723;52.220;8.792;2022-07-30T03:31:31;15.00;99.90
7366;DHT22;3723;52.220;8.792;2022-07-30T03:33:59;15.00;99.90
7366;DHT22;3723;52.220;8.792;2022-07-30T03:36:26;15.00;99.90
7366;DHT22;3723;52.220;8.792;2022-07-30T03:38:54;15.00;99.90
7366;DHT22;3723;52.220;8.792;2022-07-30T03:41:23;15.10;99.90
7366;DHT22;3723;52.220;8.792;2022-07-30T03:43:50;15.10;99.90
7366;DHT22;3723;52.220;8.792;2022-07-30T03:46:17;15.10;99.90
7366;DHT22;3723;52.220;8.792;2022-07-30T03:48:45;15.10;99.90
7366;DHT22;3723;52.220;8.792;2022-07-30T03:51:12;15.10;99.90
7366;DHT22;3723;52.220;8.792;2022-07-30T03:53:40;15.10;99.90
7366;DHT22;3723;52.220;8.792;2022-07-30T03:56:08;15.10;99.90
7366;DHT22;3723;52.220;8.792;2022-07-30T03:58:37;15.10;99.90
7366;DHT22;3723;52.220;8.792;2022-07-30T04:01:04;15.10;99.90
7366;DHT22;3723;52.220;8.792;2022-07-30T04:03:32;15.10;99.90
7366;DHT22;3723;52.220;8.792;2022-07-30T04:05:59;15.10;99.90
7366;DHT22;3723;52.220;8.792;2022-07-30T04:08:27;15.20;99.90
7366;DHT22;3723;52.220;8.792;2022-07-30T04:10:54;15.30;99.90
7366;DHT22;3723;52.220;8.792;2022-07-30T04:13:20;15.30;99.90
7366;DHT22;3723;52.220;8.792;2022-07-30T04:15:54;15.40;99.90
7366;DHT22;3723;52.220;8.792;2022-07-30T04:18:26;15.50;99.90
7366;DHT22;3723;52.220;8.792;2022-07-30T04:20:54;15.50;99.90
7366;DHT22;3723;52.220;8.792;2022-07-30T04:23:22;15.50;99.90
7366;DHT22;3723;52.220;8.792;2022-07-30T04:25:50;15.50;99.90
7366;DHT22;3723;52.220;8.792;2022-07-30T04:28:18;15.60;99.90
7366;DHT22;3723;52.220;8.792;2022-07-30T04:30:46;15.70;99.90
7366;DHT22;3723;52.220;8.792;2022-07-30T04:33:14;15.70;99.90
7366;DHT22;3723;52.220;8.792;2022-07-30T04:35:41;15.70;99.90
7366;DHT22;3723;52.220;8.792;2022-07-30T04:38:08;15.70;99.90
7366;DHT22;3723;52.220;8.792;2022-07-30T04:40:36;15.70;99.90
7366;DHT22;3723;52.220;8.792;2022-07-30T04:43:02;15.80;99.90
7366;DHT22;3723;52.220;8.792;2022-07-30T04:45:29;15.80;99.90
7366;DHT22;3723;52.220;8.792;2022-07-30T04:47:56;15.70;99.90
7366;DHT22;3723;52.220;8.792;2022-07-30T04:50:27;15.70;99.90
7366;DHT22;3723;52.220;8.792;2022-07-30T04:52:55;15.70;99.90
7366;DHT22;3723;52.220;8.792;2022-07-30T04:55:22;15.70;99.90
7366;DHT22;3723;52.220;8.792;2022-07-30T04:57:51;15.70;99.90
7366;DHT22;3723;52.220;8.792;2022-07-30T05:00:19;15.70;99.90
7366;DHT22;3723;52.220;8.792;2022-07-30T05:02:48;15.70;99.90
7366;DHT22;3723;52.220;8.792;2022-07-30T05:05:15;15.70;99.90
7366;DHT22;3723;52.220;8.792;2022-07-30T05:07:45;15.70;99.90
7366;DHT22;3723;52.220;8.792;2022-07-30T05:10:12;15.70;99.90
7366;DHT22;3723;52.220;8.792;2022-07-30T05:12:39;15.70;99.90
7366;DHT22;3723;52.220;8.792;2022-07-30T05:15:08;15.70;99.90
7366;DHT22;3723;52.220;8.792;2022-07-30T05:17:36;15.70;99.90
7366;DHT22;3723;52.220;8.792;2022-07-30T05:20:04;15.70;99.90
7366;DHT22;3723;52.220;8.792;2022-07-30T05:22:31;15.70;99.90
7366;DHT22;3723;52.220;8.792;2022-07-30T05:24:59;15.70;99.90
7366;DHT22;3723;52.220;8.792;2022-07-30T05:27:26;15.70;99.90
7366;DHT22;3723;52.220;8.792;2022-07-30T05:29:53;15.80;99.90
7366;DHT22;3723;52.220;8.792;2022-07-30T05:32:20;15.80;99.90
7366;DHT22;3723;52.220;8.792;2022-07-30T05:34:47;15.90;99.90
7366;DHT22;3723;52.220;8.792;2022-07-30T05:37:14;15.90;99.90
7366;DHT22;3723;52.220;8.792;2022-07-30T05:39:40;15.90;99.90
7366;DHT22;3723;52.220;8.792;2022-07-30T05:42:08;15.90;99.90
7366;DHT22;3723;52.220;8.792;2022-07-30T05:44:35;16.00;99.90
7366;DHT22;3723;52.220;8.792;2022-07-30T05:47:02;16.00;99.90
7366;DHT22;3723;52.220;8.792;2022-07-30T05:49:29;16.00;99.90
7366;DHT22;3723;52.220;8.792;2022-07-30T05:51:56;16.10;99.90
7366;DHT22;3723;52.220;8.792;2022-07-30T05:54:22;16.10;99.90
7366;DHT22;3723;52.220;8.792;2022-07-30T05:56:49;16.20;99.90
7366;DHT22;3723;52.220;8.792;2022-07-30T05:59:17;16.20;99.90
7366;DHT22;3723;52.220;8.792;2022-07-30T06:01:45;16.30;99.90
7366;DHT22;3723;52.220;8.792;2022-07-30T06:04:12;16.30;99.90
7366;DHT22;3723;52.220;8.792;2022-07-30T06:06:38;16.30;99.90
7366;DHT22;3723;52.220;8.792;2022-07-30T06:09:05;16.30;99.90
7366;DHT22;3723;52.220;8.792;2022-07-30T06:11:32;16.20;99.90
7366;DHT22;3723;52.220;8.792;2022-07-30T06:13:59;16.30;99.90
7366;DHT22;3723;52.220;8.792;2022-07-30T06:16:27;16.30;99.90
7366;DHT22;3723;52.220;8.792;2022-07-30T06:18:55;16.40;99.90
7366;DHT22;3723;52.220;8.792;2022-07-30T06:21:22;16.40;99.90
7366;DHT22;3723;52.220;8.792;2022-07-30T06:23:48;16.50;99.90
7366;DHT22;3723;52.220;8.792;2022-07-30T06:26:15;16.60;99.90
7366;DHT22;3723;52.220;8.792;2022-07-30T06:28:42;16.70;99.90
7366;DHT22;3723;52.220;8.792;2022-07-30T06:31:09;16.70;99.90
7366;DHT22;3723;52.220;8.792;2022-07-30T06:33:37;16.70;99.90
7366;DHT22;3723;52.220;8.792;2022-07-30T06:36:04;16.80;99.90
7366;DHT22;3723;52.220;8.792;2022-07-30T06:38:31;16.80;99.90
7366;DHT22;3723;52.220;8.792;2022-07-30T06:40:58;17.00;99.90
7366;DHT22;3723;52.220;8.792;2022-07-30T06:43:25;17.10;99.90
7366;DHT22;3723;52.220;8.792;2022-07-30T06:45:52;17.20;99.90
7366;DHT22;3723;52.220;8.792;2022-07-30T06:48:19;17.30;99.90
7366;DHT22;3723;52.220;8.792;2022-07-30T06:50:47;17.50;99.90
7366;DHT22;3723;52.220;8.792;2022-07-30T06:53:14;17.60;99.90
7366;DHT22;3723;52.220;8.792;2022-07-30T06:55:41;17.80;99.90
7366;DHT22;3723;52.220;8.792;2022-07-30T06:58:08;18.10;99.90
7366;DHT22;3723;52.220;8.792;2022-07-30T07:00:35;18.10;99.90
7366;DHT22;3723;52.220;8.792;2022-07-30T07:03:01;18.20;99.90
7366;DHT22;3723;52.220;8.792;2022-07-30T07:05:28;18.40;99.90
7366;DHT22;3723;52.220;8.792;2022-07-30T07:07:56;18.50;99.90
7366;DHT22;3723;52.220;8.792;2022-07-30T07:10:23;18.60;99.90
7366;DHT22;3723;52.220;8.792;2022-07-30T07:12:50;18.80;99.90
7366;DHT22;3723;52.220;8.792;2022-07-30T07:15:17;19.00;99.90
7366;DHT22;3723;52.220;8.792;2022-07-30T07:17:44;19.20;99.90
7366;DHT22;3723;52.220;8.792;2022-07-30T07:20:11;19.30;99.90
7366;DHT22;3723;52.220;8.792;2022-07-30T07:22:38;19.40;99.90
7366;DHT22;3723;52.220;8.792;2022-07-30T07:25:07;19.40;99.90
7366;DHT22;3723;52.220;8.792;2022-07-30T07:27:35;19.50;99.90
7366;DHT22;3723;52.220;8.792;2022-07-30T07:30:03;19.60;99.90
7366;DHT22;3723;52.220;8.792;2022-07-30T07:32:31;19.90;99.90
7366;DHT22;3723;52.220;8.792;2022-07-30T07:34:57;20.10;99.90
7366;DHT22;3723;52.220;8.792;2022-07-30T07:37:24;20.50;99.90
7366;DHT22;3723;52.220;8.792;2022-07-30T07:39:51;21.10;99.90
7366;DHT22;3723;52.220;8.792;2022-07-30T07:42:19;21.60;99.90
7366;DHT22;3723;52.220;8.792;2022-07-30T07:44:46;21.80;99.90
7366;DHT22;3723;52.220;8.792;2022-07-30T07:47:13;22.20;99.90
7366;DHT22;3723;52.220;8.792;2022-07-30T07:49:40;22.60;99.90
7366;DHT22;3723;52.220;8.792;2022-07-30T07:52:07;23.10;99.90
7366;DHT22;3723;52.220;8.792;2022-07-30T07:54:33;23.60;99.90
7366;DHT22;3723;52.220;8.792;2022-07-30T07:57:00;24.40;99.90
7366;DHT22;3723;52.220;8.792;2022-07-30T07:59:30;25.60;99.90
7366;DHT22;3723;52.220;8.792;2022-07-30T08:01:56;27.10;99.90
7366;DHT22;3723;52.220;8.792;2022-07-30T08:04:23;28.00;99.90
7366;DHT22;3723;52.220;8.792;2022-07-30T08:06:50;28.20;99.90
7366;DHT22;3723;52.220;8.792;2022-07-30T08:09:17;28.70;99.90
7366;DHT22;3723;52.220;8.792;2022-07-30T08:11:43;29.50;99.90
7366;DHT22;3723;52.220;8.792;2022-07-30T08:14:10;29.70;99.90
7366;DHT22;3723;52.220;8.792;2022-07-30T08:16:38;30.20;99.90
7366;DHT22;3723;52.220;8.792;2022-07-30T08:19:05;30.50;99.90
7366;DHT22;3723;52.220;8.792;2022-07-30T08:21:32;30.70;99.90
7366;DHT22;3723;52.220;8.792;2022-07-30T08:23:59;30.80;99.90
7366;DHT22;3723;52.220;8.792;2022-07-30T08:26:26;30.80;99.90
7366;DHT22;3723;52.220;8.792;2022-07-30T08:28:53;30.60;99.90
7366;DHT22;3723;52.220;8.792;2022-07-30T08:31:19;30.40;99.90
7366;DHT22;3723;52.220;8.792;2022-07-30T08:33:48;30.00;99.90
7366;DHT22;3723;52.220;8.792;2022-07-30T08:36:15;29.60;99.90
7366;DHT22;3723;52.220;8.792;2022-07-30T08:38:42;29.30;99.90
7366;DHT22;3723;52.220;8.792;2022-07-30T08:41:08;29.30;99.90
7366;DHT22;3723;52.220;8.792;2022-07-30T08:43:36;29.60;99.90
7366;DHT22;3723;52.220;8.792;2022-07-30T08:46:04;30.30;99.90
7366;DHT22;3723;52.220;8.792;2022-07-30T08:48:33;31.10;99.90
7366;DHT22;3723;52.220;8.792;2022-07-30T08:51:03;30.70;99.90
7366;DHT22;3723;52.220;8.792;2022-07-30T08:53:32;30.60;99.90
7366;DHT22;3723;52.220;8.792;2022-07-30T08:55:59;30.90;99.90
7366;DHT22;3723;52.220;8.792;2022-07-30T08:58:28;31.30;99.90
7366;DHT22;3723;52.220;8.792;2022-07-30T09:00:55;31.40;99.90
7366;DHT22;3723;52.220;8.792;2022-07-30T09:03:22;31.50;99.90
7366;DHT22;3723;52.220;8.792;2022-07-30T09:05:49;31.60;99.90
7366;DHT22;3723;52.220;8.792;2022-07-30T09:08:17;31.40;99.90
7366;DHT22;3723;52.220;8.792;2022-07-30T09:10:46;31.00;99.90
7366;DHT22;3723;52.220;8.792;2022-07-30T09:13:23;30.60;99.90
7366;DHT22;3723;52.220;8.792;2022-07-30T09:15:50;30.90;99.90
7366;DHT22;3723;52.220;8.792;2022-07-30T09:18:25;31.30;99.90
7366;DHT22;3723;52.220;8.792;2022-07-30T09:20:53;31.30;99.90
7366;DHT22;3723;52.220;8.792;2022-07-30T09:23:21;31.10;99.90
7366;DHT22;3723;52.220;8.792;2022-07-30T09:25:51;31.00;99.90
7366;DHT22;3723;52.220;8.792;2022-07-30T09:28:27;30.80;99.90
7366;DHT22;3723;52.220;8.792;2022-07-30T09:30:55;30.70;99.90
7366;DHT22;3723;52.220;8.792;2022-07-30T09:33:33;30.80;99.90
7366;DHT22;3723;52.220;8.792;2022-07-30T09:36:01;30.80;99.90
7366;DHT22;3723;52.220;8.792;2022-07-30T09:38:44;31.00;99.90
7366;DHT22;3723;52.220;8.792;2022-07-30T09:41:12;30.90;99.90
7366;DHT22;3723;52.220;8.792;2022-07-30T09:43:44;30.10;97.70
7366;DHT22;3723;52.220;8.792;2022-07-30T09:46:11;29.50;95.10
7366;DHT22;3723;52.220;8.792;2022-07-30T09:48:38;29.20;94.40
7366;DHT22;3723;52.220;8.792;2022-07-30T09:51:06;29.10;94.00
7366;DHT22;3723;52.220;8.792;2022-07-30T09:53:35;29.20;94.10
7366;DHT22;3723;52.220;8.792;2022-07-30T09:56:22;29.50;95.50
7366;DHT22;3723;52.220;8.792;2022-07-30T09:58:49;29.60;95.60
7366;DHT22;3723;52.220;8.792;2022-07-30T10:01:16;30.10;96.60
7366;DHT22;3723;52.220;8.792;2022-07-30T10:03:43;30.60;97.40
7366;DHT22;3723;52.220;8.792;2022-07-30T10:06:10;31.00;98.30
7366;DHT22;3723;52.220;8.792;2022-07-30T10:08:41;31.50;98.90
7366;DHT22;3723;52.220;8.792;2022-07-30T10:11:10;32.00;99.90
7366;DHT22;3723;52.220;8.792;2022-07-30T10:13:38;32.90;99.90
7366;DHT22;3723;52.220;8.792;2022-07-30T10:16:08;33.50;99.90
7366;DHT22;3723;52.220;8.792;2022-07-30T10:18:35;34.00;99.90
7366;DHT22;3723;52.220;8.792;2022-07-30T10:21:07;34.60;99.90
7366;DHT22;3723;52.220;8.792;2022-07-30T10:23:35;34.80;99.90
7366;DHT22;3723;52.220;8.792;2022-07-30T10:26:04;34.70;99.90
7366;DHT22;3723;52.220;8.792;2022-07-30T10:28:34;34.70;99.90
7366;DHT22;3723;52.220;8.792;2022-07-30T10:31:16;35.10;99.80
7366;DHT22;3723;52.220;8.792;2022-07-30T10:33:43;35.10;99.90
7366;DHT22;3723;52.220;8.792;2022-07-30T10:36:11;35.30;98.90
7366;DHT22;3723;52.220;8.792;2022-07-30T10:38:39;35.60;98.40
7366;DHT22;3723;52.220;8.792;2022-07-30T10:41:30;35.70;99.90
7366;DHT22;3723;52.220;8.792;2022-07-30T10:44:27;35.50;96.00
7366;DHT22;3723;52.220;8.792;2022-07-30T10:47:00;35.30;94.00
7366;DHT22;3723;52.220;8.792;2022-07-30T10:49:31;35.10;93.00
7366;DHT22;3723;52.220;8.792;2022-07-30T10:52:04;34.90;91.20
7366;DHT22;3723;52.220;8.792;2022-07-30T10:54:42;34.80;90.70
7366;DHT22;3723;52.220;8.792;2022-07-30T10:57:14;34.70;88.80
7366;DHT22;3723;52.220;8.792;2022-07-30T11:00:09;34.90;89.50
7366;DHT22;3723;52.220;8.792;2022-07-30T11:02:37;35.30;89.90
7366;DHT22;3723;52.220;8.792;2022-07-30T11:05:22;35.60;90.30
7366;DHT22;3723;52.220;8.792;2022-07-30T11:07:49;35.50;87.80
7366;DHT22;3723;52.220;8.792;2022-07-30T11:10:34;35.40;86.80
7366;DHT22;3723;52.220;8.792;2022-07-30T11:13:05;35.60;86.30
7366;DHT22;3723;52.220;8.792;2022-07-30T11:15:51;35.70;84.90
7366;DHT22;3723;52.220;8.792;2022-07-30T11:18:18;35.70;83.60
7366;DHT22;3723;52.220;8.792;2022-07-30T11:21:16;35.60;82.30
7366;DHT22;3723;52.220;8.792;2022-07-30T11:23:44;35.30;78.90
7366;DHT22;3723;52.220;8.792;2022-07-30T11:26:46;35.30;78.60
7366;DHT22;3723;52.220;8.792;2022-07-30T11:29:38;35.40;78.80
7366;DHT22;3723;52.220;8.792;2022-07-30T11:32:25;35.60;77.80
7366;DHT22;3723;52.220;8.792;2022-07-30T11:34:52;35.60;76.50
7366;DHT22;3723;52.220;8.792;2022-07-30T11:37:56;36.10;78.90
7366;DHT22;3723;52.220;8.792;2022-07-30T11:40:23;37.20;70.10
7366;DHT22;3723;52.220;8.792;2022-07-30T11:42:51;37.20;82.50
7366;DHT22;3723;52.220;8.792;2022-07-30T11:45:38;37.40;81.90
7366;DHT22;3723;52.220;8.792;2022-07-30T11:48:10;37.40;80.90
7366;DHT22;3723;52.220;8.792;2022-07-30T11:50:37;36.30;72.90
7366;DHT22;3723;52.220;8.792;2022-07-30T11:53:08;35.10;63.50
7366;DHT22;3723;52.220;8.792;2022-07-30T11:55:38;34.10;58.90
7366;DHT22;3723;52.220;8.792;2022-07-30T11:58:08;33.30;55.40
7366;DHT22;3723;52.220;8.792;2022-07-30T12:00:37;32.40;50.80
7366;DHT22;3723;52.220;8.792;2022-07-30T12:03:08;31.50;46.40
7366;DHT22;3723;52.220;8.792;2022-07-30T12:05:36;30.90;43.30
7366;DHT22;3723;52.220;8.792;2022-07-30T12:08:06;31.30;47.30
7366;DHT22;3723;52.220;8.792;2022-07-30T12:10:33;32.50;53.20
7366;DHT22;3723;52.220;8.792;2022-07-30T12:13:09;33.30;58.20
7366;DHT22;3723;52.220;8.792;2022-07-30T12:15:38;32.90;56.50
7366;DHT22;3723;52.220;8.792;2022-07-30T12:18:06;32.30;52.50
7366;DHT22;3723;52.220;8.792;2022-07-30T12:20:33;32.50;56.00
7366;DHT22;3723;52.220;8.792;2022-07-30T12:23:00;32.50;56.10
7366;DHT22;3723;52.220;8.792;2022-07-30T12:25:29;32.20;54.40
7366;DHT22;3723;52.220;8.792;2022-07-30T12:27:56;31.50;50.90
7366;DHT22;3723;52.220;8.792;2022-07-30T12:30:23;30.70;45.70
7366;DHT22;3723;52.220;8.792;2022-07-30T12:32:50;30.10;44.20
7366;DHT22;3723;52.220;8.792;2022-07-30T12:35:17;30.00;44.50
7366;DHT22;3723;52.220;8.792;2022-07-30T12:38:01;30.00;47.40
7366;DHT22;3723;52.220;8.792;2022-07-30T12:40:30;29.90;47.80
7366;DHT22;3723;52.220;8.792;2022-07-30T12:42:57;29.80;49.20
7366;DHT22;3723;52.220;8.792;2022-07-30T12:45:26;29.50;46.30
7366;DHT22;3723;52.220;8.792;2022-07-30T12:47:54;29.20;46.40
7366;DHT22;3723;52.220;8.792;2022-07-30T12:50:20;29.00;47.10
7366;DHT22;3723;52.220;8.792;2022-07-30T12:52:49;29.00;49.20
7366;DHT22;3723;52.220;8.792;2022-07-30T12:55:17;29.10;51.30
7366;DHT22;3723;52.220;8.792;2022-07-30T12:57:52;29.40;51.70
7366;DHT22;3723;52.220;8.792;2022-07-30T13:00:20;29.50;53.60
7366;DHT22;3723;52.220;8.792;2022-07-30T13:02:46;29.30;51.00
7366;DHT22;3723;52.220;8.792;2022-07-30T13:05:13;29.10;51.70
7366;DHT22;3723;52.220;8.792;2022-07-30T13:07:54;28.70;50.40
7366;DHT22;3723;52.220;8.792;2022-07-30T13:10:22;28.50;51.80
7366;DHT22;3723;52.220;8.792;2022-07-30T13:12:49;28.40;51.90
7366;DHT22;3723;52.220;8.792;2022-07-30T13:15:18;28.40;53.20
7366;DHT22;3723;52.220;8.792;2022-07-30T13:17:45;28.70;55.40
7366;DHT22;3723;52.220;8.792;2022-07-30T13:20:13;29.00;56.70
7366;DHT22;3723;52.220;8.792;2022-07-30T13:22:40;29.40;61.60
7366;DHT22;3723;52.220;8.792;2022-07-30T13:25:08;29.60;60.60
7366;DHT22;3723;52.220;8.792;2022-07-30T13:27:35;29.70;62.40
7366;DHT22;3723;52.220;8.792;2022-07-30T13:30:02;29.80;62.00
7366;DHT22;3723;52.220;8.792;2022-07-30T13:32:31;29.70;61.30
7366;DHT22;3723;52.220;8.792;2022-07-30T13:34:58;29.80;63.50
7366;DHT22;3723;52.220;8.792;2022-07-30T13:37:25;29.80;61.00
7366;DHT22;3723;52.220;8.792;2022-07-30T13:39:51;29.80;62.60
7366;DHT22;3723;52.220;8.792;2022-07-30T13:42:18;30.30;66.40
7366;DHT22;3723;52.220;8.792;2022-07-30T13:44:45;31.30;70.40
7366;DHT22;3723;52.220;8.792;2022-07-30T13:47:12;32.20;75.90
7366;DHT22;3723;52.220;8.792;2022-07-30T13:49:40;32.50;76.50
7366;DHT22;3723;52.220;8.792;2022-07-30T13:52:10;32.60;74.20
7366;DHT22;3723;52.220;8.792;2022-07-30T13:54:37;32.50;74.10
7366;DHT22;3723;52.220;8.792;2022-07-30T13:57:04;32.90;73.30
7366;DHT22;3723;52.220;8.792;2022-07-30T13:59:31;33.20;75.20
7366;DHT22;3723;52.220;8.792;2022-07-30T14:02:00;33.30;74.70
7366;DHT22;3723;52.220;8.792;2022-07-30T14:04:28;33.50;74.70
7366;DHT22;3723;52.220;8.792;2022-07-30T14:06:56;33.50;73.50
7366;DHT22;3723;52.220;8.792;2022-07-30T14:09:23;33.00;69.40
7366;DHT22;3723;52.220;8.792;2022-07-30T14:11:51;32.50;63.80
7366;DHT22;3723;52.220;8.792;2022-07-30T14:14:18;32.10;60.70
7366;DHT22;3723;52.220;8.792;2022-07-30T14:16:47;31.60;60.00
7366;DHT22;3723;52.220;8.792;2022-07-30T14:19:15;31.30;57.80
7366;DHT22;3723;52.220;8.792;2022-07-30T14:21:42;31.10;57.00
7366;DHT22;3723;52.220;8.792;2022-07-30T14:24:10;30.70;55.30
7366;DHT22;3723;52.220;8.792;2022-07-30T14:26:38;30.40;53.70
7366;DHT22;3723;52.220;8.792;2022-07-30T14:29:05;30.10;49.80
7366;DHT22;3723;52.220;8.792;2022-07-30T14:31:32;30.00;52.70
7366;DHT22;3723;52.220;8.792;2022-07-30T14:33:59;30.00;50.30
7366;DHT22;3723;52.220;8.792;2022-07-30T14:36:26;29.90;51.80
7366;DHT22;3723;52.220;8.792;2022-07-30T14:38:54;29.70;50.60
7366;DHT22;3723;52.220;8.792;2022-07-30T14:41:22;29.70;50.80
7366;DHT22;3723;52.220;8.792;2022-07-30T14:43:49;29.70;50.60
7366;DHT22;3723;52.220;8.792;2022-07-30T14:46:17;30.10;55.00
7366;DHT22;3723;52.220;8.792;2022-07-30T14:48:43;30.70;58.10
7366;DHT22;3723;52.220;8.792;2022-07-30T14:51:11;31.20;60.90
7366;DHT22;3723;52.220;8.792;2022-07-30T14:53:37;31.50;61.80
7366;DHT22;3723;52.220;8.792;2022-07-30T14:56:04;31.50;61.90
7366;DHT22;3723;52.220;8.792;2022-07-30T14:58:32;32.30;66.50
7366;DHT22;3723;52.220;8.792;2022-07-30T15:00:59;33.20;68.90
7366;DHT22;3723;52.220;8.792;2022-07-30T15:03:26;33.30;68.00
7366;DHT22;3723;52.220;8.792;2022-07-30T15:05:53;32.60;61.70
7366;DHT22;3723;52.220;8.792;2022-07-30T15:08:20;31.90;57.20
7366;DHT22;3723;52.220;8.792;2022-07-30T15:10:46;31.10;53.00
7366;DHT22;3723;52.220;8.792;2022-07-30T15:13:13;30.40;50.20
7366;DHT22;3723;52.220;8.792;2022-07-30T15:15:42;29.70;47.40
7366;DHT22;3723;52.220;8.792;2022-07-30T15:18:08;29.20;44.60
7366;DHT22;3723;52.220;8.792;2022-07-30T15:20:36;28.80;43.90
7366;DHT22;3723;52.220;8.792;2022-07-30T15:23:03;28.60;44.80
7366;DHT22;3723;52.220;8.792;2022-07-30T15:25:30;28.40;44.00
7366;DHT22;3723;52.220;8.792;2022-07-30T15:27:57;28.20;42.90
7366;DHT22;3723;52.220;8.792;2022-07-30T15:30:24;28.00;43.10
7366;DHT22;3723;52.220;8.792;2022-07-30T15:32:52;27.90;43.60
7366;DHT22;3723;52.220;8.792;2022-07-30T15:35:19;27.90;45.30
7366;DHT22;3723;52.220;8.792;2022-07-30T15:37:46;28.00;47.80
7366;DHT22;3723;52.220;8.792;2022-07-30T15:40:12;28.10;47.00
7366;DHT22;3723;52.220;8.792;2022-07-30T15:42:39;28.50;51.70
7366;DHT22;3723;52.220;8.792;2022-07-30T15:45:07;29.20;55.50
7366;DHT22;3723;52.220;8.792;2022-07-30T15:47:34;29.60;56.70
7366;DHT22;3723;52.220;8.792;2022-07-30T15:50:03;29.70;57.40
7366;DHT22;3723;52.220;8.792;2022-07-30T15:52:30;29.60;55.70
7366;DHT22;3723;52.220;8.792;2022-07-30T15:54:57;29.40;55.00
7366;DHT22;3723;52.220;8.792;2022-07-30T15:57:24;29.00;52.70
7366;DHT22;3723;52.220;8.792;2022-07-30T15:59:51;28.60;50.00
7366;DHT22;3723;52.220;8.792;2022-07-30T16:02:18;28.10;47.10
7366;DHT22;3723;52.220;8.792;2022-07-30T16:04:45;27.80;47.80
7366;DHT22;3723;52.220;8.792;2022-07-30T16:07:13;27.70;49.00
7366;DHT22;3723;52.220;8.792;2022-07-30T16:09:40;27.50;45.70
7366;DHT22;3723;52.220;8.792;2022-07-30T16:12:07;27.30;45.50